sensor_id;sensor_type;location;lat;lon;timestamp;P1;durP1;ratioP1;P2;durP2;ratioP2
7931;SDS011;4011;49.424;10.894;2023-07-20T00:02:04;6.18;;;3.35;;
7931;SDS011;4011;49.424;10.894;2023-07-20T00:07:28;6.18;;;3.20;;
7931;SDS011;4011;49.424;10.894;2023-07-20T00:12:50;7.05;;;3.30;;
7931;SDS011;4011;49.424;10.894;2023-07-20T00:18:11;6.85;;;3.45;;
7931;SDS011;4011;49.424;10.894;2023-07-20T00:23:35;6.35;;;3.70;;
7931;SDS011;4011;49.424;10.894;2023-07-20T00:28:56;5.50;;;3.00;;
7931;SDS011;4011;49.424;10.894;2023-07-20T00:34:18;4.55;;;3.30;;
7931;SDS011;4011;49.424;10.894;2023-07-20T00:39:41;5.95;;;3.47;;
7931;SDS011;4011;49.424;10.894;2023-07-20T00:45:02;5.20;;;3.67;;
7931;SDS011;4011;49.424;10.894;2023-07-20T00:50:24;5.20;;;3.35;;
7931;SDS011;4011;49.424;10.894;2023-07-20T00:55:48;5.63;;;3.33;;
7931;SDS011;4011;49.424;10.894;2023-07-20T01:01:10;5.18;;;3.10;;
7931;SDS011;4011;49.424;10.894;2023-07-20T01:06:34;6.20;;;3.92;;
7931;SDS011;4011;49.424;10.894;2023-07-20T01:11:59;6.63;;;3.33;;
7931;SDS011;4011;49.424;10.894;2023-07-20T01:17:23;9.38;;;3.58;;
7931;SDS011;4011;49.424;10.894;2023-07-20T01:22:54;6.30;;;3.22;;
7931;SDS011;4011;49.424;10.894;2023-07-20T01:28:25;6.75;;;3.65;;
7931;SDS011;4011;49.424;10.894;2023-07-20T01:33:54;7.70;;;3.78;;
7931;SDS011;4011;49.424;10.894;2023-07-20T01:39:16;5.55;;;3.13;;
7931;SDS011;4011;49.424;10.894;2023-07-20T01:44:38;5.18;;;3.38;;
7931;SDS011;4011;49.424;10.894;2023-07-20T01:50:01;5.97;;;3.25;;
7931;SDS011;4011;49.424;10.894;2023-07-20T01:55:23;7.30;;;2.88;;
7931;SDS011;4011;49.424;10.894;2023-07-20T02:00:44;6.18;;;3.40;;
7931;SDS011;4011;49.424;10.894;2023-07-20T02:06:07;6.45;;;4.25;;
7931;SDS011;4011;49.424;10.894;2023-07-20T02:11:29;6.18;;;3.45;;
7931;SDS011;4011;49.424;10.894;2023-07-20T02:16:50;6.55;;;3.42;;
7931;SDS011;4011;49.424;10.894;2023-07-20T02:22:13;8.18;;;3.15;;
7931;SDS011;4011;49.424;10.894;2023-07-20T02:27:35;4.82;;;3.53;;
7931;SDS011;4011;49.424;10.894;2023-07-20T02:32:57;4.90;;;3.30;;
7931;SDS011;4011;49.424;10.894;2023-07-20T02:38:21;8.25;;;3.67;;
7931;SDS011;4011;49.424;10.894;2023-07-20T02:43:42;4.97;;;2.80;;
7931;SDS011;4011;49.424;10.894;2023-07-20T02:49:03;7.03;;;3.67;;
7931;SDS011;4011;49.424;10.894;2023-07-20T02:54:29;9.07;;;4.10;;
7931;SDS011;4011;49.424;10.894;2023-07-20T02:59:51;6.72;;;3.10;;
7931;SDS011;4011;49.424;10.894;2023-07-20T03:05:13;5.43;;;3.15;;
7931;SDS011;4011;49.424;10.894;2023-07-20T03:10:41;7.78;;;3.50;;
7931;SDS011;4011;49.424;10.894;2023-07-20T03:16:02;9.07;;;3.53;;
7931;SDS011;4011;49.424;10.894;2023-07-20T03:21:24;7.40;;;3.45;;
7931;SDS011;4011;49.424;10.894;2023-07-20T03:26:47;6.35;;;3.08;;
7931;SDS011;4011;49.424;10.894;2023-07-20T03:32:08;6.47;;;3.25;;
7931;SDS011;4011;49.424;10.894;2023-07-20T03:37:30;8.35;;;3.88;;
7931;SDS011;4011;49.424;10.894;2023-07-20T03:42:53;9.55;;;3.60;;
7931;SDS011;4011;49.424;10.894;2023-07-20T03:48:16;5.68;;;3.20;;
7931;SDS011;4011;49.424;10.894;2023-07-20T03:53:38;6.63;;;2.90;;
7931;SDS011;4011;49.424;10.894;2023-07-20T03:59:01;6.13;;;4.00;;
7931;SDS011;4011;49.424;10.894;2023-07-20T04:04:23;7.38;;;3.60;;
7931;SDS011;4011;49.424;10.894;2023-07-20T04:09:44;5.80;;;2.88;;
7931;SDS011;4011;49.424;10.894;2023-07-20T04:15:08;5.47;;;3.35;;
7931;SDS011;4011;49.424;10.894;2023-07-20T04:20:30;6.18;;;3.28;;
7931;SDS011;4011;49.424;10.894;2023-07-20T04:25:52;10.50;;;4.20;;
7931;SDS011;4011;49.424;10.894;2023-07-20T04:31:15;6.97;;;3.15;;
7931;SDS011;4011;49.424;10.894;2023-07-20T04:36:37;7.85;;;2.95;;
7931;SDS011;4011;49.424;10.894;2023-07-20T04:42:02;6.97;;;3.50;;
7931;SDS011;4011;49.424;10.894;2023-07-20T04:47:40;6.28;;;3.42;;
7931;SDS011;4011;49.424;10.894;2023-07-20T04:53:04;7.15;;;3.15;;
7931;SDS011;4011;49.424;10.894;2023-07-20T04:58:26;5.53;;;3.35;;
7931;SDS011;4011;49.424;10.894;2023-07-20T05:03:49;7.95;;;3.30;;
7931;SDS011;4011;49.424;10.894;2023-07-20T05:09:11;7.15;;;3.05;;
7931;SDS011;4011;49.424;10.894;2023-07-20T05:14:33;6.03;;;3.30;;
7931;SDS011;4011;49.424;10.894;2023-07-20T05:19:56;4.82;;;3.03;;
7931;SDS011;4011;49.424;10.894;2023-07-20T05:25:19;5.63;;;3.75;;
7931;SDS011;4011;49.424;10.894;2023-07-20T05:30:43;6.22;;;2.92;;
7931;SDS011;4011;49.424;10.894;2023-07-20T05:36:06;5.93;;;3.00;;
7931;SDS011;4011;49.424;10.894;2023-07-20T05:41:28;5.78;;;2.80;;
7931;SDS011;4011;49.424;10.894;2023-07-20T05:46:50;7.20;;;3.78;;
7931;SDS011;4011;49.424;10.894;2023-07-20T05:52:13;8.20;;;3.05;;
7931;SDS011;4011;49.424;10.894;2023-07-20T05:57:35;6.55;;;2.95;;
7931;SDS011;4011;49.424;10.894;2023-07-20T06:02:57;5.10;;;2.60;;
7931;SDS011;4011;49.424;10.894;2023-07-20T06:08:21;5.85;;;3.38;;
7931;SDS011;4011;49.424;10.894;2023-07-20T06:13:43;4.80;;;2.75;;
7931;SDS011;4011;49.424;10.894;2023-07-20T06:19:05;5.07;;;2.97;;
7931;SDS011;4011;49.424;10.894;2023-07-20T06:24:28;4.75;;;2.75;;
7931;SDS011;4011;49.424;10.894;2023-07-20T06:29:49;4.28;;;3.15;;
7931;SDS011;4011;49.424;10.894;2023-07-20T06:35:11;5.07;;;3.50;;
7931;SDS011;4011;49.424;10.894;2023-07-20T06:40:34;6.93;;;2.75;;
7931;SDS011;4011;49.424;10.894;2023-07-20T06:45:56;5.57;;;2.90;;
7931;SDS011;4011;49.424;10.894;2023-07-20T06:51:17;6.47;;;2.65;;
7931;SDS011;4011;49.424;10.894;2023-07-20T06:56:41;4.80;;;2.83;;
7931;SDS011;4011;49.424;10.894;2023-07-20T07:02:03;4.97;;;2.70;;
7931;SDS011;4011;49.424;10.894;2023-07-20T07:07:26;6.30;;;2.75;;
7931;SDS011;4011;49.424;10.894;2023-07-20T07:12:49;4.88;;;2.78;;
7931;SDS011;4011;49.424;10.894;2023-07-20T07:18:11;3.97;;;3.20;;
7931;SDS011;4011;49.424;10.894;2023-07-20T07:23:33;4.47;;;2.80;;
7931;SDS011;4011;49.424;10.894;2023-07-20T07:28:56;4.22;;;2.47;;
7931;SDS011;4011;49.424;10.894;2023-07-20T07:34:18;6.10;;;3.05;;
7931;SDS011;4011;49.424;10.894;2023-07-20T07:39:40;6.22;;;3.20;;
7931;SDS011;4011;49.424;10.894;2023-07-20T07:45:04;5.63;;;3.40;;
7931;SDS011;4011;49.424;10.894;2023-07-20T07:50:26;7.22;;;2.90;;
7931;SDS011;4011;49.424;10.894;2023-07-20T07:55:48;3.88;;;2.58;;
7931;SDS011;4011;49.424;10.894;2023-07-20T08:01:11;5.95;;;3.00;;
7931;SDS011;4011;49.424;10.894;2023-07-20T08:06:33;5.22;;;2.70;;
7931;SDS011;4011;49.424;10.894;2023-07-20T08:11:54;6.30;;;2.75;;
7931;SDS011;4011;49.424;10.894;2023-07-20T08:17:17;5.18;;;2.63;;
7931;SDS011;4011;49.424;10.894;2023-07-20T08:22:38;4.07;;;2.47;;
7931;SDS011;4011;49.424;10.894;2023-07-20T08:28:01;4.20;;;2.70;;
7931;SDS011;4011;49.424;10.894;2023-07-20T08:33:25;5.95;;;2.60;;
7931;SDS011;4011;49.424;10.894;2023-07-20T08:38:49;6.22;;;2.50;;
7931;SDS011;4011;49.424;10.894;2023-07-20T08:44:11;3.47;;;2.47;;
7931;SDS011;4011;49.424;10.894;2023-07-20T08:49:35;5.03;;;3.10;;
7931;SDS011;4011;49.424;10.894;2023-07-20T08:54:56;7.18;;;2.53;;
7931;SDS011;4011;49.424;10.894;2023-07-20T09:00:19;5.28;;;2.25;;
7931;SDS011;4011;49.424;10.894;2023-07-20T09:05:43;5.55;;;2.35;;
7931;SDS011;4011;49.424;10.894;2023-07-20T09:11:05;3.85;;;2.70;;
7931;SDS011;4011;49.424;10.894;2023-07-20T09:16:27;4.55;;;2.30;;
7931;SDS011;4011;49.424;10.894;2023-07-20T09:21:50;4.00;;;2.28;;
7931;SDS011;4011;49.424;10.894;2023-07-20T09:27:13;4.32;;;2.10;;
7931;SDS011;4011;49.424;10.894;2023-07-20T09:32:38;3.78;;;2.75;;
7931;SDS011;4011;49.424;10.894;2023-07-20T09:38:12;3.75;;;2.10;;
7931;SDS011;4011;49.424;10.894;2023-07-20T09:43:35;3.75;;;2.05;;
7931;SDS011;4011;49.424;10.894;2023-07-20T09:48:59;3.03;;;1.92;;
7931;SDS011;4011;49.424;10.894;2023-07-20T09:54:22;3.17;;;2.33;;
7931;SDS011;4011;49.424;10.894;2023-07-20T09:59:45;3.25;;;2.00;;
7931;SDS011;4011;49.424;10.894;2023-07-20T10:05:07;3.50;;;2.00;;
7931;SDS011;4011;49.424;10.894;2023-07-20T10:10:33;3.45;;;2.03;;
7931;SDS011;4011;49.424;10.894;2023-07-20T10:15:57;4.10;;;2.38;;
7931;SDS011;4011;49.424;10.894;2023-07-20T10:21:20;3.80;;;2.10;;
7931;SDS011;4011;49.424;10.894;2023-07-20T10:26:45;2.80;;;1.85;;
7931;SDS011;4011;49.424;10.894;2023-07-20T10:32:07;4.45;;;2.10;;
7931;SDS011;4011;49.424;10.894;2023-07-20T10:37:51;3.42;;;2.22;;
7931;SDS011;4011;49.424;10.894;2023-07-20T10:43:16;3.40;;;2.13;;
7931;SDS011;4011;49.424;10.894;2023-07-20T10:48:59;2.97;;;2.13;;
7931;SDS011;4011;49.424;10.894;2023-07-20T10:54:34;3.30;;;1.90;;
7931;SDS011;4011;49.424;10.894;2023-07-20T11:00:10;3.33;;;2.45;;
7931;SDS011;4011;49.424;10.894;2023-07-20T11:05:36;4.03;;;1.88;;
7931;SDS011;4011;49.424;10.894;2023-07-20T11:16:36;3.63;;;2.25;;
7931;SDS011;4011;49.424;10.894;2023-07-20T11:21:58;2.90;;;1.88;;
7931;SDS011;4011;49.424;10.894;2023-07-20T11:27:19;2.90;;;1.90;;
7931;SDS011;4011;49.424;10.894;2023-07-20T11:32:48;2.90;;;2.05;;
7931;SDS011;4011;49.424;10.894;2023-07-20T11:38:09;2.95;;;1.92;;
7931;SDS011;4011;49.424;10.894;2023-07-20T11:43:33;3.42;;;2.00;;
7931;SDS011;4011;49.424;10.894;2023-07-20T11:49:01;3.47;;;1.80;;
7931;SDS011;4011;49.424;10.894;2023-07-20T11:54:23;4.22;;;2.58;;
7931;SDS011;4011;49.424;10.894;2023-07-20T11:59:54;3.45;;;2.08;;
7931;SDS011;4011;49.424;10.894;2023-07-20T12:05:19;3.15;;;2.17;;
7931;SDS011;4011;49.424;10.894;2023-07-20T12:10:41;4.20;;;2.50;;
7931;SDS011;4011;49.424;10.894;2023-07-20T12:16:14;3.53;;;2.50;;
7931;SDS011;4011;49.424;10.894;2023-07-20T12:21:38;3.72;;;2.10;;
7931;SDS011;4011;49.424;10.894;2023-07-20T12:27:00;3.60;;;2.17;;
7931;SDS011;4011;49.424;10.894;2023-07-20T12:32:22;3.47;;;2.65;;
7931;SDS011;4011;49.424;10.894;2023-07-20T12:37:45;3.88;;;2.08;;
7931;SDS011;4011;49.424;10.894;2023-07-20T12:43:09;3.95;;;2.50;;
7931;SDS011;4011;49.424;10.894;2023-07-20T12:48:30;3.65;;;2.30;;
7931;SDS011;4011;49.424;10.894;2023-07-20T12:53:53;3.90;;;2.40;;
7931;SDS011;4011;49.424;10.894;2023-07-20T12:59:15;3.50;;;2.10;;
7931;SDS011;4011;49.424;10.894;2023-07-20T13:04:37;3.47;;;1.88;;
7931;SDS011;4011;49.424;10.894;2023-07-20T13:10:00;5.38;;;2.15;;
7931;SDS011;4011;49.424;10.894;2023-07-20T13:15:23;4.30;;;2.55;;
7931;SDS011;4011;49.424;10.894;2023-07-20T13:20:46;4.20;;;2.58;;
7931;SDS011;4011;49.424;10.894;2023-07-20T13:26:09;4.00;;;2.20;;
7931;SDS011;4011;49.424;10.894;2023-07-20T13:31:31;4.78;;;2.47;;
7931;SDS011;4011;49.424;10.894;2023-07-20T13:36:52;3.17;;;2.13;;
7931;SDS011;4011;49.424;10.894;2023-07-20T13:42:16;3.55;;;2.22;;
7931;SDS011;4011;49.424;10.894;2023-07-20T13:47:38;3.70;;;2.08;;
7931;SDS011;4011;49.424;10.894;2023-07-20T13:52:59;3.58;;;2.17;;
7931;SDS011;4011;49.424;10.894;2023-07-20T13:58:25;3.92;;;2.35;;
7931;SDS011;4011;49.424;10.894;2023-07-20T14:03:46;3.83;;;2.65;;
7931;SDS011;4011;49.424;10.894;2023-07-20T14:09:08;4.40;;;2.55;;
7931;SDS011;4011;49.424;10.894;2023-07-20T14:14:31;3.83;;;2.15;;
7931;SDS011;4011;49.424;10.894;2023-07-20T14:19:52;4.05;;;2.33;;
7931;SDS011;4011;49.424;10.894;2023-07-20T14:25:14;3.70;;;2.50;;
7931;SDS011;4011;49.424;10.894;2023-07-20T14:30:37;3.85;;;2.30;;
7931;SDS011;4011;49.424;10.894;2023-07-20T14:35:59;4.80;;;2.35;;
7931;SDS011;4011;49.424;10.894;2023-07-20T14:41:21;3.40;;;2.10;;
7931;SDS011;4011;49.424;10.894;2023-07-20T14:46:45;3.55;;;2.13;;
7931;SDS011;4011;49.424;10.894;2023-07-20T14:52:07;4.18;;;2.38;;
7931;SDS011;4011;49.424;10.894;2023-07-20T14:57:29;4.97;;;2.53;;
7931;SDS011;4011;49.424;10.894;2023-07-20T15:02:52;4.72;;;2.50;;
7931;SDS011;4011;49.424;10.894;2023-07-20T15:08:16;4.28;;;2.50;;
7931;SDS011;4011;49.424;10.894;2023-07-20T15:13:39;4.03;;;2.88;;
7931;SDS011;4011;49.424;10.894;2023-07-20T15:19:04;4.88;;;2.35;;
7931;SDS011;4011;49.424;10.894;2023-07-20T15:24:25;4.07;;;2.13;;
7931;SDS011;4011;49.424;10.894;2023-07-20T15:29:48;3.90;;;2.45;;
7931;SDS011;4011;49.424;10.894;2023-07-20T15:35:12;4.25;;;2.95;;
7931;SDS011;4011;49.424;10.894;2023-07-20T15:40:33;3.38;;;2.10;;
7931;SDS011;4011;49.424;10.894;2023-07-20T15:46:00;3.45;;;1.90;;
7931;SDS011;4011;49.424;10.894;2023-07-20T15:51:23;3.90;;;2.03;;
7931;SDS011;4011;49.424;10.894;2023-07-20T15:56:45;3.88;;;2.58;;
7931;SDS011;4011;49.424;10.894;2023-07-20T16:02:07;4.18;;;2.50;;
7931;SDS011;4011;49.424;10.894;2023-07-20T16:07:29;5.03;;;2.70;;
7931;SDS011;4011;49.424;10.894;2023-07-20T16:12:52;4.95;;;2.30;;
7931;SDS011;4011;49.424;10.894;2023-07-20T16:18:13;5.30;;;3.20;;
7931;SDS011;4011;49.424;10.894;2023-07-20T16:23:36;4.30;;;2.47;;
7931;SDS011;4011;49.424;10.894;2023-07-20T16:28:59;4.13;;;2.40;;
7931;SDS011;4011;49.424;10.894;2023-07-20T16:34:21;3.63;;;2.47;;
7931;SDS011;4011;49.424;10.894;2023-07-20T16:39:48;3.80;;;2.45;;
7931;SDS011;4011;49.424;10.894;2023-07-20T16:45:10;3.58;;;2.20;;
7931;SDS011;4011;49.424;10.894;2023-07-20T16:50:33;3.83;;;2.00;;
7931;SDS011;4011;49.424;10.894;2023-07-20T16:55:56;3.40;;;1.88;;
7931;SDS011;4011;49.424;10.894;2023-07-20T17:01:17;4.00;;;2.22;;
7931;SDS011;4011;49.424;10.894;2023-07-20T17:06:39;3.88;;;2.30;;
7931;SDS011;4011;49.424;10.894;2023-07-20T17:12:02;3.03;;;2.00;;
7931;SDS011;4011;49.424;10.894;2023-07-20T17:17:23;5.60;;;2.10;;
7931;SDS011;4011;49.424;10.894;2023-07-20T17:22:45;3.67;;;2.03;;
7931;SDS011;4011;49.424;10.894;2023-07-20T17:28:08;3.70;;;2.38;;
7931;SDS011;4011;49.424;10.894;2023-07-20T17:33:30;3.10;;;1.80;;
7931;SDS011;4011;49.424;10.894;2023-07-20T17:38:51;3.83;;;2.00;;
7931;SDS011;4011;49.424;10.894;2023-07-20T17:44:14;3.03;;;1.70;;
7931;SDS011;4011;49.424;10.894;2023-07-20T17:49:36;2.92;;;2.20;;
7931;SDS011;4011;49.424;10.894;2023-07-20T17:54:58;3.63;;;2.00;;
7931;SDS011;4011;49.424;10.894;2023-07-20T18:00:21;4.25;;;1.90;;
7931;SDS011;4011;49.424;10.894;2023-07-20T18:05:43;3.25;;;1.90;;
7931;SDS011;4011;49.424;10.894;2023-07-20T18:11:06;3.55;;;2.22;;
7931;SDS011;4011;49.424;10.894;2023-07-20T18:16:31;3.47;;;2.20;;
7931;SDS011;4011;49.424;10.894;2023-07-20T18:21:52;3.55;;;2.08;;
7931;SDS011;4011;49.424;10.894;2023-07-20T18:27:14;4.13;;;2.22;;
7931;SDS011;4011;49.424;10.894;2023-07-20T18:32:38;4.18;;;2.05;;
7931;SDS011;4011;49.424;10.894;2023-07-20T18:38:01;5.95;;;2.30;;
7931;SDS011;4011;49.424;10.894;2023-07-20T18:43:23;4.45;;;1.98;;
7931;SDS011;4011;49.424;10.894;2023-07-20T18:48:51;3.70;;;1.95;;
7931;SDS011;4011;49.424;10.894;2023-07-20T18:54:13;3.35;;;2.08;;
7931;SDS011;4011;49.424;10.894;2023-07-20T18:59:36;3.72;;;2.30;;
7931;SDS011;4011;49.424;10.894;2023-07-20T19:04:59;5.05;;;2.00;;
7931;SDS011;4011;49.424;10.894;2023-07-20T19:10:20;4.00;;;2.03;;
7931;SDS011;4011;49.424;10.894;2023-07-20T19:15:46;5.78;;;2.35;;
7931;SDS011;4011;49.424;10.894;2023-07-20T19:21:10;3.55;;;2.53;;
7931;SDS011;4011;49.424;10.894;2023-07-20T19:26:31;3.78;;;2.20;;
7931;SDS011;4011;49.424;10.894;2023-07-20T19:31:53;7.68;;;2.60;;
7931;SDS011;4011;49.424;10.894;2023-07-20T19:37:16;5.93;;;2.22;;
7931;SDS011;4011;49.424;10.894;2023-07-20T19:42:37;3.85;;;2.63;;
7931;SDS011;4011;49.424;10.894;2023-07-20T19:48:00;7.43;;;2.05;;
7931;SDS011;4011;49.424;10.894;2023-07-20T19:53:25;7.05;;;2.33;;
7931;SDS011;4011;49.424;10.894;2023-07-20T19:58:46;3.75;;;2.20;;
7931;SDS011;4011;49.424;10.894;2023-07-20T20:04:08;4.38;;;2.72;;
7931;SDS011;4011;49.424;10.894;2023-07-20T20:09:31;4.22;;;2.50;;
7931;SDS011;4011;49.424;10.894;2023-07-20T20:14:53;17.77;;;7.57;;
7931;SDS011;4011;49.424;10.894;2023-07-20T20:20:16;15.25;;;6.07;;
7931;SDS011;4011;49.424;10.894;2023-07-20T20:25:42;9.45;;;4.72;;
7931;SDS011;4011;49.424;10.894;2023-07-20T20:31:04;5.90;;;2.83;;
7931;SDS011;4011;49.424;10.894;2023-07-20T20:36:26;5.38;;;2.70;;
7931;SDS011;4011;49.424;10.894;2023-07-20T20:41:49;5.35;;;2.58;;
7931;SDS011;4011;49.424;10.894;2023-07-20T20:47:11;4.50;;;2.60;;
7931;SDS011;4011;49.424;10.894;2023-07-20T20:52:32;4.68;;;2.40;;
7931;SDS011;4011;49.424;10.894;2023-07-20T20:57:56;3.88;;;2.20;;
7931;SDS011;4011;49.424;10.894;2023-07-20T21:03:17;3.40;;;2.08;;
7931;SDS011;4011;49.424;10.894;2023-07-20T21:08:39;4.32;;;2.47;;
7931;SDS011;4011;49.424;10.894;2023-07-20T21:14:02;3.22;;;2.72;;
7931;SDS011;4011;49.424;10.894;2023-07-20T21:19:24;3.95;;;2.10;;
7931;SDS011;4011;49.424;10.894;2023-07-20T21:24:45;3.70;;;2.45;;
7931;SDS011;4011;49.424;10.894;2023-07-20T21:30:09;4.57;;;2.30;;
7931;SDS011;4011;49.424;10.894;2023-07-20T21:35:31;3.55;;;2.83;;
7931;SDS011;4011;49.424;10.894;2023-07-20T21:40:53;4.65;;;2.45;;
7931;SDS011;4011;49.424;10.894;2023-07-20T21:46:16;3.97;;;2.13;;
7931;SDS011;4011;49.424;10.894;2023-07-20T21:51:38;4.07;;;2.33;;
7931;SDS011;4011;49.424;10.894;2023-07-20T21:56:59;3.58;;;2.55;;
7931;SDS011;4011;49.424;10.894;2023-07-20T22:02:23;3.63;;;2.70;;
7931;SDS011;4011;49.424;10.894;2023-07-20T22:07:44;3.20;;;2.20;;
7931;SDS011;4011;49.424;10.894;2023-07-20T22:13:06;4.13;;;2.33;;
7931;SDS011;4011;49.424;10.894;2023-07-20T22:18:30;3.30;;;2.22;;
7931;SDS011;4011;49.424;10.894;2023-07-20T22:23:53;3.50;;;2.90;;
7931;SDS011;4011;49.424;10.894;2023-07-20T22:29:14;4.20;;;2.20;;
7931;SDS011;4011;49.424;10.894;2023-07-20T22:34:37;3.45;;;2.38;;
7931;SDS011;4011;49.424;10.894;2023-07-20T22:39:59;5.63;;;3.60;;
7931;SDS011;4011;49.424;10.894;2023-07-20T22:45:20;5.95;;;4.22;;
7931;SDS011;4011;49.424;10.894;2023-07-20T22:50:43;5.20;;;3.83;;
7931;SDS011;4011;49.424;10.894;2023-07-20T22:56:06;5.18;;;3.60;;
7931;SDS011;4011;49.424;10.894;2023-07-20T23:01:27;5.88;;;3.88;;
7931;SDS011;4011;49.424;10.894;2023-07-20T23:06:50;9.95;;;9.13;;
7931;SDS011;4011;49.424;10.894;2023-07-20T23:12:12;10.30;;;9.40;;
7931;SDS011;4011;49.424;10.894;2023-07-20T23:17:33;6.55;;;5.95;;
7931;SDS011;4011;49.424;10.894;2023-07-20T23:22:59;5.40;;;4.90;;
7931;SDS011;4011;49.424;10.894;2023-07-20T23:28:21;6.75;;;6.07;;
7931;SDS011;4011;49.424;10.894;2023-07-20T23:33:43;7.43;;;6.82;;
7931;SDS011;4011;49.424;10.894;2023-07-20T23:39:06;6.25;;;5.35;;
7931;SDS011;4011;49.424;10.894;2023-07-20T23:44:28;4.95;;;4.10;;
7931;SDS011;4011;49.424;10.894;2023-07-20T23:49:51;4.82;;;4.30;;
7931;SDS011;4011;49.424;10.894;2023-07-20T23:55:15;5.60;;;3.60;;
